Terminal Aerodrome Forecast
Issued by NWS Brownsville, TX

Current Version | Previous Version | Text Only | Print | Product List | Glossary On
Versions: 1 2 3 4 5 6 7 8 9 10 11 12 13 14 15 16 17 18 19 20 21 22 23 24 25 26 27
530
FTUS44 KBRO 260011 AAA
TAFBRO
TAF AMD
KBRO 260011Z 2600/2624 14009KT P6SM BKN017
     FM260400 VRB04KT 4SM BR OVC012
     FM260600 34004KT 3SM BR OVC008
     FM260900 35007KT 2SM RA BR OVC005 PROB30 2610/2614 2SM TSRA
      OVC012CB
     FM262100 04008KT 4SM BR OVC009=

USA.gov is the U.S. government's official web portal to all federal, state and local government web resources and services.